sensor_id;sensor_type;location;lat;lon;timestamp;P1;durP1;ratioP1;P2;durP2;ratioP2
21677;SDS011;11000;50.360;7.582;2023-04-15T00:00:16;3.60;;;2.30;;
21677;SDS011;11000;50.360;7.582;2023-04-15T00:02:36;4.83;;;2.70;;
21677;SDS011;11000;50.360;7.582;2023-04-15T00:04:57;4.80;;;2.20;;
21677;SDS011;11000;50.360;7.582;2023-04-15T00:07:18;2.73;;;2.10;;
21677;SDS011;11000;50.360;7.582;2023-04-15T00:09:41;4.90;;;2.20;;
21677;SDS011;11000;50.360;7.582;2023-04-15T00:12:02;4.37;;;2.30;;
21677;SDS011;11000;50.360;7.582;2023-04-15T00:14:22;2.87;;;1.97;;
21677;SDS011;11000;50.360;7.582;2023-04-15T00:16:43;5.87;;;2.57;;
21677;SDS011;11000;50.360;7.582;2023-04-15T00:19:03;4.23;;;2.13;;
21677;SDS011;11000;50.360;7.582;2023-04-15T00:21:24;6.17;;;2.23;;
21677;SDS011;11000;50.360;7.582;2023-04-15T00:23:46;4.50;;;2.57;;
21677;SDS011;11000;50.360;7.582;2023-04-15T00:26:11;4.33;;;2.37;;
21677;SDS011;11000;50.360;7.582;2023-04-15T00:28:32;7.93;;;2.30;;
21677;SDS011;11000;50.360;7.582;2023-04-15T00:30:52;3.97;;;2.10;;
21677;SDS011;11000;50.360;7.582;2023-04-15T00:33:13;3.33;;;2.07;;
21677;SDS011;11000;50.360;7.582;2023-04-15T00:35:35;3.60;;;2.07;;
21677;SDS011;11000;50.360;7.582;2023-04-15T00:37:56;4.37;;;2.33;;
21677;SDS011;11000;50.360;7.582;2023-04-15T00:40:18;4.17;;;2.13;;
21677;SDS011;11000;50.360;7.582;2023-04-15T00:42:39;3.63;;;2.30;;
21677;SDS011;11000;50.360;7.582;2023-04-15T00:45:00;3.40;;;2.30;;
21677;SDS011;11000;50.360;7.582;2023-04-15T00:47:21;4.50;;;2.20;;
21677;SDS011;11000;50.360;7.582;2023-04-15T00:49:41;4.40;;;2.47;;
21677;SDS011;11000;50.360;7.582;2023-04-15T00:52:02;3.93;;;1.90;;
21677;SDS011;11000;50.360;7.582;2023-04-15T00:54:23;7.80;;;2.40;;
21677;SDS011;11000;50.360;7.582;2023-04-15T00:56:44;6.30;;;2.70;;
21677;SDS011;11000;50.360;7.582;2023-04-15T00:59:04;5.70;;;1.80;;
21677;SDS011;11000;50.360;7.582;2023-04-15T01:01:26;6.00;;;2.03;;
21677;SDS011;11000;50.360;7.582;2023-04-15T01:03:48;7.10;;;2.23;;
21677;SDS011;11000;50.360;7.582;2023-04-15T01:06:10;4.40;;;2.20;;
21677;SDS011;11000;50.360;7.582;2023-04-15T01:08:30;3.40;;;1.80;;
21677;SDS011;11000;50.360;7.582;2023-04-15T01:10:51;3.80;;;2.00;;
21677;SDS011;11000;50.360;7.582;2023-04-15T01:13:14;3.97;;;2.30;;
21677;SDS011;11000;50.360;7.582;2023-04-15T01:15:35;3.93;;;2.33;;
21677;SDS011;11000;50.360;7.582;2023-04-15T01:17:56;4.67;;;2.10;;
21677;SDS011;11000;50.360;7.582;2023-04-15T01:20:18;3.60;;;2.50;;
21677;SDS011;11000;50.360;7.582;2023-04-15T01:22:39;4.03;;;2.17;;
21677;SDS011;11000;50.360;7.582;2023-04-15T01:25:00;6.53;;;2.03;;
21677;SDS011;11000;50.360;7.582;2023-04-15T01:27:27;2.60;;;1.90;;
21677;SDS011;11000;50.360;7.582;2023-04-15T01:29:47;4.33;;;2.20;;
21677;SDS011;11000;50.360;7.582;2023-04-15T01:32:08;3.53;;;1.90;;
21677;SDS011;11000;50.360;7.582;2023-04-15T01:34:28;4.13;;;2.20;;
21677;SDS011;11000;50.360;7.582;2023-04-15T01:36:49;4.00;;;1.93;;
21677;SDS011;11000;50.360;7.582;2023-04-15T01:39:10;6.87;;;2.47;;
21677;SDS011;11000;50.360;7.582;2023-04-15T01:41:31;4.33;;;1.93;;
21677;SDS011;11000;50.360;7.582;2023-04-15T01:43:52;5.40;;;2.30;;
21677;SDS011;11000;50.360;7.582;2023-04-15T01:46:13;3.63;;;2.17;;
21677;SDS011;11000;50.360;7.582;2023-04-15T01:48:33;2.83;;;1.80;;
21677;SDS011;11000;50.360;7.582;2023-04-15T01:50:54;3.57;;;2.13;;
21677;SDS011;11000;50.360;7.582;2023-04-15T01:53:17;4.03;;;1.57;;
21677;SDS011;11000;50.360;7.582;2023-04-15T01:55:37;3.67;;;2.23;;
21677;SDS011;11000;50.360;7.582;2023-04-15T01:57:58;3.73;;;1.90;;
21677;SDS011;11000;50.360;7.582;2023-04-15T02:00:18;4.47;;;2.07;;
21677;SDS011;11000;50.360;7.582;2023-04-15T02:02:39;3.53;;;2.00;;
21677;SDS011;11000;50.360;7.582;2023-04-15T02:05:00;2.40;;;1.60;;
21677;SDS011;11000;50.360;7.582;2023-04-15T02:07:20;3.83;;;1.77;;
21677;SDS011;11000;50.360;7.582;2023-04-15T02:09:41;3.60;;;2.00;;
21677;SDS011;11000;50.360;7.582;2023-04-15T02:12:02;1.70;;;1.60;;
21677;SDS011;11000;50.360;7.582;2023-04-15T02:14:23;6.10;;;1.87;;
21677;SDS011;11000;50.360;7.582;2023-04-15T02:16:43;4.63;;;1.87;;
21677;SDS011;11000;50.360;7.582;2023-04-15T02:19:04;2.50;;;1.93;;
21677;SDS011;11000;50.360;7.582;2023-04-15T02:21:27;4.03;;;2.00;;
21677;SDS011;11000;50.360;7.582;2023-04-15T02:23:48;2.70;;;2.00;;
21677;SDS011;11000;50.360;7.582;2023-04-15T02:26:08;4.77;;;2.20;;
21677;SDS011;11000;50.360;7.582;2023-04-15T02:28:29;4.27;;;1.93;;
21677;SDS011;11000;50.360;7.582;2023-04-15T02:30:49;3.80;;;2.13;;
21677;SDS011;11000;50.360;7.582;2023-04-15T02:33:11;4.93;;;2.00;;
21677;SDS011;11000;50.360;7.582;2023-04-15T02:35:32;2.93;;;1.80;;
21677;SDS011;11000;50.360;7.582;2023-04-15T02:37:52;3.47;;;2.13;;
21677;SDS011;11000;50.360;7.582;2023-04-15T02:40:13;3.33;;;1.67;;
21677;SDS011;11000;50.360;7.582;2023-04-15T02:42:33;3.57;;;2.30;;
21677;SDS011;11000;50.360;7.582;2023-04-15T02:44:54;4.10;;;1.90;;
21677;SDS011;11000;50.360;7.582;2023-04-15T02:47:15;3.33;;;1.90;;
21677;SDS011;11000;50.360;7.582;2023-04-15T02:49:35;4.80;;;1.93;;
21677;SDS011;11000;50.360;7.582;2023-04-15T02:51:57;4.23;;;1.90;;
21677;SDS011;11000;50.360;7.582;2023-04-15T02:54:19;4.93;;;2.03;;
21677;SDS011;11000;50.360;7.582;2023-04-15T02:56:41;3.67;;;2.13;;
21677;SDS011;11000;50.360;7.582;2023-04-15T02:59:02;4.83;;;1.97;;
21677;SDS011;11000;50.360;7.582;2023-04-15T03:01:23;3.47;;;1.87;;
21677;SDS011;11000;50.360;7.582;2023-04-15T03:03:45;3.07;;;1.90;;
21677;SDS011;11000;50.360;7.582;2023-04-15T03:06:05;2.03;;;1.80;;
21677;SDS011;11000;50.360;7.582;2023-04-15T03:08:27;2.93;;;2.07;;
21677;SDS011;11000;50.360;7.582;2023-04-15T03:10:48;8.03;;;2.03;;
21677;SDS011;11000;50.360;7.582;2023-04-15T03:13:11;2.20;;;1.83;;
21677;SDS011;11000;50.360;7.582;2023-04-15T03:15:32;7.60;;;2.00;;
21677;SDS011;11000;50.360;7.582;2023-04-15T03:17:52;6.23;;;2.10;;
21677;SDS011;11000;50.360;7.582;2023-04-15T03:20:13;4.27;;;2.10;;
21677;SDS011;11000;50.360;7.582;2023-04-15T03:22:33;3.60;;;1.80;;
21677;SDS011;11000;50.360;7.582;2023-04-15T03:24:54;3.73;;;2.00;;
21677;SDS011;11000;50.360;7.582;2023-04-15T03:27:14;3.60;;;2.00;;
21677;SDS011;11000;50.360;7.582;2023-04-15T03:29:34;2.77;;;2.23;;
21677;SDS011;11000;50.360;7.582;2023-04-15T03:31:55;3.33;;;1.80;;
21677;SDS011;11000;50.360;7.582;2023-04-15T03:34:16;5.00;;;2.03;;
21677;SDS011;11000;50.360;7.582;2023-04-15T03:36:36;3.07;;;1.87;;
21677;SDS011;11000;50.360;7.582;2023-04-15T03:38:57;4.53;;;1.90;;
21677;SDS011;11000;50.360;7.582;2023-04-15T03:41:18;6.53;;;2.77;;
21677;SDS011;11000;50.360;7.582;2023-04-15T03:43:38;3.40;;;1.90;;
21677;SDS011;11000;50.360;7.582;2023-04-15T03:45:59;6.00;;;1.90;;
21677;SDS011;11000;50.360;7.582;2023-04-15T03:48:20;3.30;;;2.30;;
21677;SDS011;11000;50.360;7.582;2023-04-15T03:50:40;5.37;;;2.57;;
21677;SDS011;11000;50.360;7.582;2023-04-15T03:53:01;4.67;;;2.23;;
21677;SDS011;11000;50.360;7.582;2023-04-15T03:55:21;3.07;;;1.73;;
21677;SDS011;11000;50.360;7.582;2023-04-15T03:57:42;6.50;;;2.17;;
21677;SDS011;11000;50.360;7.582;2023-04-15T04:00:03;5.23;;;2.20;;
21677;SDS011;11000;50.360;7.582;2023-04-15T04:02:25;2.30;;;1.90;;
21677;SDS011;11000;50.360;7.582;2023-04-15T04:04:47;6.40;;;2.33;;
21677;SDS011;11000;50.360;7.582;2023-04-15T04:07:07;3.60;;;2.17;;
21677;SDS011;11000;50.360;7.582;2023-04-15T04:09:28;3.60;;;1.93;;
21677;SDS011;11000;50.360;7.582;2023-04-15T04:11:48;3.50;;;2.20;;
21677;SDS011;11000;50.360;7.582;2023-04-15T04:14:09;3.53;;;2.03;;
21677;SDS011;11000;50.360;7.582;2023-04-15T04:16:29;3.70;;;2.37;;
21677;SDS011;11000;50.360;7.582;2023-04-15T04:18:50;4.90;;;2.53;;
21677;SDS011;11000;50.360;7.582;2023-04-15T04:21:10;4.10;;;2.43;;
21677;SDS011;11000;50.360;7.582;2023-04-15T04:23:31;3.73;;;2.27;;
21677;SDS011;11000;50.360;7.582;2023-04-15T04:25:52;3.30;;;2.13;;
21677;SDS011;11000;50.360;7.582;2023-04-15T04:28:12;2.87;;;1.80;;
21677;SDS011;11000;50.360;7.582;2023-04-15T04:30:34;3.17;;;2.20;;
21677;SDS011;11000;50.360;7.582;2023-04-15T04:32:55;3.70;;;1.90;;
21677;SDS011;11000;50.360;7.582;2023-04-15T04:35:15;3.30;;;1.90;;
21677;SDS011;11000;50.360;7.582;2023-04-15T04:37:36;4.33;;;2.30;;
21677;SDS011;11000;50.360;7.582;2023-04-15T04:39:56;5.50;;;2.00;;
21677;SDS011;11000;50.360;7.582;2023-04-15T04:42:17;3.63;;;2.30;;
21677;SDS011;11000;50.360;7.582;2023-04-15T04:44:38;4.87;;;2.70;;
21677;SDS011;11000;50.360;7.582;2023-04-15T04:46:58;5.37;;;2.23;;
21677;SDS011;11000;50.360;7.582;2023-04-15T04:49:19;5.53;;;2.27;;
21677;SDS011;11000;50.360;7.582;2023-04-15T04:51:40;6.43;;;2.33;;
21677;SDS011;11000;50.360;7.582;2023-04-15T04:54:00;2.67;;;2.00;;
21677;SDS011;11000;50.360;7.582;2023-04-15T04:56:21;4.03;;;2.33;;
21677;SDS011;11000;50.360;7.582;2023-04-15T04:58:42;3.47;;;2.20;;
21677;SDS011;11000;50.360;7.582;2023-04-15T05:01:02;3.87;;;2.07;;
21677;SDS011;11000;50.360;7.582;2023-04-15T05:03:23;4.00;;;2.40;;
21677;SDS011;11000;50.360;7.582;2023-04-15T05:05:44;4.23;;;2.53;;
21677;SDS011;11000;50.360;7.582;2023-04-15T05:08:04;3.53;;;2.07;;
21677;SDS011;11000;50.360;7.582;2023-04-15T05:10:25;6.17;;;2.17;;
21677;SDS011;11000;50.360;7.582;2023-04-15T05:12:46;4.30;;;2.23;;
21677;SDS011;11000;50.360;7.582;2023-04-15T05:15:07;3.97;;;2.07;;
21677;SDS011;11000;50.360;7.582;2023-04-15T05:17:28;4.70;;;2.37;;
21677;SDS011;11000;50.360;7.582;2023-04-15T05:19:50;3.87;;;2.30;;
21677;SDS011;11000;50.360;7.582;2023-04-15T05:22:12;4.23;;;2.30;;
21677;SDS011;11000;50.360;7.582;2023-04-15T05:24:33;8.70;;;2.63;;
21677;SDS011;11000;50.360;7.582;2023-04-15T05:26:53;7.17;;;2.97;;
21677;SDS011;11000;50.360;7.582;2023-04-15T05:29:15;6.50;;;2.20;;
21677;SDS011;11000;50.360;7.582;2023-04-15T05:31:35;4.20;;;2.30;;
21677;SDS011;11000;50.360;7.582;2023-04-15T05:33:56;7.03;;;2.87;;
21677;SDS011;11000;50.360;7.582;2023-04-15T05:36:16;4.13;;;2.53;;
21677;SDS011;11000;50.360;7.582;2023-04-15T05:38:37;5.43;;;2.60;;
21677;SDS011;11000;50.360;7.582;2023-04-15T05:40:57;7.87;;;3.37;;
21677;SDS011;11000;50.360;7.582;2023-04-15T05:43:18;3.23;;;2.40;;
21677;SDS011;11000;50.360;7.582;2023-04-15T05:45:38;5.07;;;2.60;;
21677;SDS011;11000;50.360;7.582;2023-04-15T05:47:59;5.13;;;2.40;;
21677;SDS011;11000;50.360;7.582;2023-04-15T05:50:20;5.07;;;2.90;;
21677;SDS011;11000;50.360;7.582;2023-04-15T05:52:40;5.73;;;2.53;;
21677;SDS011;11000;50.360;7.582;2023-04-15T05:55:01;3.30;;;2.87;;
21677;SDS011;11000;50.360;7.582;2023-04-15T05:57:22;4.87;;;2.60;;
21677;SDS011;11000;50.360;7.582;2023-04-15T05:59:42;3.67;;;2.43;;
21677;SDS011;11000;50.360;7.582;2023-04-15T06:02:03;8.70;;;3.10;;
21677;SDS011;11000;50.360;7.582;2023-04-15T06:04:25;6.17;;;2.97;;
21677;SDS011;11000;50.360;7.582;2023-04-15T06:06:45;4.33;;;2.67;;
21677;SDS011;11000;50.360;7.582;2023-04-15T06:09:06;4.70;;;2.73;;
21677;SDS011;11000;50.360;7.582;2023-04-15T06:11:26;4.33;;;2.63;;
21677;SDS011;11000;50.360;7.582;2023-04-15T06:13:47;4.00;;;2.33;;
21677;SDS011;11000;50.360;7.582;2023-04-15T06:16:07;4.37;;;2.53;;
21677;SDS011;11000;50.360;7.582;2023-04-15T06:18:28;5.93;;;2.40;;
21677;SDS011;11000;50.360;7.582;2023-04-15T06:20:49;6.63;;;3.17;;
21677;SDS011;11000;50.360;7.582;2023-04-15T06:23:10;3.57;;;2.37;;
21677;SDS011;11000;50.360;7.582;2023-04-15T06:25:31;4.87;;;2.33;;
21677;SDS011;11000;50.360;7.582;2023-04-15T06:27:51;4.03;;;2.33;;
21677;SDS011;11000;50.360;7.582;2023-04-15T06:30:12;4.40;;;2.67;;
21677;SDS011;11000;50.360;7.582;2023-04-15T06:32:32;5.67;;;2.70;;
21677;SDS011;11000;50.360;7.582;2023-04-15T06:34:53;5.17;;;2.23;;
21677;SDS011;11000;50.360;7.582;2023-04-15T06:37:13;3.60;;;2.37;;
21677;SDS011;11000;50.360;7.582;2023-04-15T06:39:35;7.10;;;2.73;;
21677;SDS011;11000;50.360;7.582;2023-04-15T06:41:56;6.60;;;2.83;;
21677;SDS011;11000;50.360;7.582;2023-04-15T06:44:16;5.53;;;2.83;;
21677;SDS011;11000;50.360;7.582;2023-04-15T06:46:37;5.70;;;2.83;;
21677;SDS011;11000;50.360;7.582;2023-04-15T06:48:58;6.23;;;3.10;;
21677;SDS011;11000;50.360;7.582;2023-04-15T06:51:18;4.53;;;2.53;;
21677;SDS011;11000;50.360;7.582;2023-04-15T06:53:39;6.43;;;2.87;;
21677;SDS011;11000;50.360;7.582;2023-04-15T06:56:01;6.47;;;2.73;;
21677;SDS011;11000;50.360;7.582;2023-04-15T06:58:21;4.90;;;3.00;;
21677;SDS011;11000;50.360;7.582;2023-04-15T07:00:42;4.30;;;2.90;;
21677;SDS011;11000;50.360;7.582;2023-04-15T07:03:03;3.90;;;2.80;;
21677;SDS011;11000;50.360;7.582;2023-04-15T07:05:24;4.70;;;2.83;;
21677;SDS011;11000;50.360;7.582;2023-04-15T07:07:45;8.60;;;2.90;;
21677;SDS011;11000;50.360;7.582;2023-04-15T07:10:05;4.57;;;3.03;;
21677;SDS011;11000;50.360;7.582;2023-04-15T07:12:26;3.93;;;2.40;;
21677;SDS011;11000;50.360;7.582;2023-04-15T07:14:47;6.60;;;2.70;;
21677;SDS011;11000;50.360;7.582;2023-04-15T07:17:08;3.63;;;3.10;;
21677;SDS011;11000;50.360;7.582;2023-04-15T07:19:29;4.17;;;2.73;;
21677;SDS011;11000;50.360;7.582;2023-04-15T07:21:49;8.07;;;3.13;;
21677;SDS011;11000;50.360;7.582;2023-04-15T07:24:10;5.47;;;2.60;;
21677;SDS011;11000;50.360;7.582;2023-04-15T07:26:30;5.10;;;2.70;;
21677;SDS011;11000;50.360;7.582;2023-04-15T07:28:51;4.70;;;2.43;;
21677;SDS011;11000;50.360;7.582;2023-04-15T07:31:12;7.60;;;3.37;;
21677;SDS011;11000;50.360;7.582;2023-04-15T07:33:32;7.40;;;2.80;;
21677;SDS011;11000;50.360;7.582;2023-04-15T07:35:53;5.77;;;3.43;;
21677;SDS011;11000;50.360;7.582;2023-04-15T07:38:13;5.73;;;3.07;;
21677;SDS011;11000;50.360;7.582;2023-04-15T07:40:34;4.80;;;2.60;;
21677;SDS011;11000;50.360;7.582;2023-04-15T07:42:55;5.77;;;2.97;;
21677;SDS011;11000;50.360;7.582;2023-04-15T07:45:16;5.80;;;3.03;;
21677;SDS011;11000;50.360;7.582;2023-04-15T07:47:36;4.30;;;2.70;;
21677;SDS011;11000;50.360;7.582;2023-04-15T07:49:57;7.37;;;2.87;;
21677;SDS011;11000;50.360;7.582;2023-04-15T07:52:17;6.43;;;3.20;;
21677;SDS011;11000;50.360;7.582;2023-04-15T07:54:38;5.90;;;3.27;;
21677;SDS011;11000;50.360;7.582;2023-04-15T07:56:58;5.90;;;3.07;;
21677;SDS011;11000;50.360;7.582;2023-04-15T07:59:19;7.33;;;3.67;;
21677;SDS011;11000;50.360;7.582;2023-04-15T08:01:40;5.93;;;3.47;;
21677;SDS011;11000;50.360;7.582;2023-04-15T08:04:01;6.87;;;3.27;;
21677;SDS011;11000;50.360;7.582;2023-04-15T08:06:22;7.07;;;3.53;;
21677;SDS011;11000;50.360;7.582;2023-04-15T08:08:43;7.43;;;3.47;;
21677;SDS011;11000;50.360;7.582;2023-04-15T08:11:03;5.47;;;3.40;;
21677;SDS011;11000;50.360;7.582;2023-04-15T08:13:24;6.27;;;3.07;;
21677;SDS011;11000;50.360;7.582;2023-04-15T08:15:52;6.03;;;3.20;;
21677;SDS011;11000;50.360;7.582;2023-04-15T08:18:33;6.93;;;3.30;;
21677;SDS011;11000;50.360;7.582;2023-04-15T08:20:53;4.90;;;3.53;;
21677;SDS011;11000;50.360;7.582;2023-04-15T08:23:14;5.93;;;3.13;;
21677;SDS011;11000;50.360;7.582;2023-04-15T08:25:34;7.40;;;3.30;;
21677;SDS011;11000;50.360;7.582;2023-04-15T08:27:55;5.90;;;3.10;;
21677;SDS011;11000;50.360;7.582;2023-04-15T08:30:17;5.77;;;3.30;;
21677;SDS011;11000;50.360;7.582;2023-04-15T08:32:38;8.03;;;3.70;;
21677;SDS011;11000;50.360;7.582;2023-04-15T08:35:00;5.67;;;3.10;;
21677;SDS011;11000;50.360;7.582;2023-04-15T08:37:21;4.93;;;3.20;;
21677;SDS011;11000;50.360;7.582;2023-04-15T08:39:41;4.23;;;3.47;;
21677;SDS011;11000;50.360;7.582;2023-04-15T08:42:05;6.77;;;3.87;;
21677;SDS011;11000;50.360;7.582;2023-04-15T08:44:32;5.20;;;2.83;;
21677;SDS011;11000;50.360;7.582;2023-04-15T08:46:53;7.27;;;4.40;;
21677;SDS011;11000;50.360;7.582;2023-04-15T08:49:16;7.10;;;3.80;;
21677;SDS011;11000;50.360;7.582;2023-04-15T08:51:41;5.77;;;4.40;;
21677;SDS011;11000;50.360;7.582;2023-04-15T08:54:02;8.60;;;3.63;;
21677;SDS011;11000;50.360;7.582;2023-04-15T08:56:23;6.90;;;4.03;;
21677;SDS011;11000;50.360;7.582;2023-04-15T08:58:45;6.43;;;4.30;;
21677;SDS011;11000;50.360;7.582;2023-04-15T09:01:07;8.73;;;3.43;;
21677;SDS011;11000;50.360;7.582;2023-04-15T09:03:28;4.90;;;3.20;;
21677;SDS011;11000;50.360;7.582;2023-04-15T09:05:50;8.80;;;4.00;;
21677;SDS011;11000;50.360;7.582;2023-04-15T09:08:11;4.60;;;3.60;;
21677;SDS011;11000;50.360;7.582;2023-04-15T09:10:32;6.97;;;3.97;;
21677;SDS011;11000;50.360;7.582;2023-04-15T09:12:53;5.93;;;3.40;;
21677;SDS011;11000;50.360;7.582;2023-04-15T09:15:14;5.13;;;3.33;;
21677;SDS011;11000;50.360;7.582;2023-04-15T09:17:36;6.10;;;3.70;;
21677;SDS011;11000;50.360;7.582;2023-04-15T09:20:09;6.07;;;3.20;;
21677;SDS011;11000;50.360;7.582;2023-04-15T09:22:33;5.37;;;3.13;;
21677;SDS011;11000;50.360;7.582;2023-04-15T09:24:54;9.03;;;4.27;;
21677;SDS011;11000;50.360;7.582;2023-04-15T09:27:15;6.47;;;3.40;;
21677;SDS011;11000;50.360;7.582;2023-04-15T09:29:36;6.67;;;3.53;;
21677;SDS011;11000;50.360;7.582;2023-04-15T09:32:08;7.33;;;3.77;;
21677;SDS011;11000;50.360;7.582;2023-04-15T09:34:36;5.63;;;3.10;;
21677;SDS011;11000;50.360;7.582;2023-04-15T09:36:57;5.63;;;2.70;;
21677;SDS011;11000;50.360;7.582;2023-04-15T09:39:18;6.07;;;2.90;;
21677;SDS011;11000;50.360;7.582;2023-04-15T09:41:43;3.10;;;2.03;;
21677;SDS011;11000;50.360;7.582;2023-04-15T09:44:05;4.97;;;2.00;;
21677;SDS011;11000;50.360;7.582;2023-04-15T09:46:40;3.80;;;1.60;;
21677;SDS011;11000;50.360;7.582;2023-04-15T09:49:11;2.43;;;1.70;;
21677;SDS011;11000;50.360;7.582;2023-04-15T09:51:35;3.80;;;2.00;;
21677;SDS011;11000;50.360;7.582;2023-04-15T09:53:56;3.00;;;1.70;;
21677;SDS011;11000;50.360;7.582;2023-04-15T09:56:17;2.50;;;1.60;;
21677;SDS011;11000;50.360;7.582;2023-04-15T09:58:41;2.40;;;1.23;;
21677;SDS011;11000;50.360;7.582;2023-04-15T10:01:02;3.50;;;1.70;;
21677;SDS011;11000;50.360;7.582;2023-04-15T10:05:44;5.07;;;1.93;;
21677;SDS011;11000;50.360;7.582;2023-04-15T10:08:10;4.47;;;1.30;;
21677;SDS011;11000;50.360;7.582;2023-04-15T10:10:31;5.07;;;1.47;;
21677;SDS011;11000;50.360;7.582;2023-04-15T10:12:52;1.70;;;1.23;;
21677;SDS011;11000;50.360;7.582;2023-04-15T10:15:15;3.67;;;1.33;;
21677;SDS011;11000;50.360;7.582;2023-04-15T10:17:36;2.63;;;1.37;;
21677;SDS011;11000;50.360;7.582;2023-04-15T10:20:03;3.47;;;1.37;;
21677;SDS011;11000;50.360;7.582;2023-04-15T10:22:24;3.20;;;1.50;;
21677;SDS011;11000;50.360;7.582;2023-04-15T10:24:47;1.60;;;1.40;;
21677;SDS011;11000;50.360;7.582;2023-04-15T10:27:08;2.93;;;1.33;;
21677;SDS011;11000;50.360;7.582;2023-04-15T10:29:30;1.93;;;1.50;;
21677;SDS011;11000;50.360;7.582;2023-04-15T10:31:50;2.17;;;1.33;;
21677;SDS011;11000;50.360;7.582;2023-04-15T10:34:13;2.17;;;1.40;;
21677;SDS011;11000;50.360;7.582;2023-04-15T10:36:35;1.97;;;1.10;;
21677;SDS011;11000;50.360;7.582;2023-04-15T10:38:56;2.77;;;1.50;;
21677;SDS011;11000;50.360;7.582;2023-04-15T10:43:48;3.03;;;1.23;;
21677;SDS011;11000;50.360;7.582;2023-04-15T10:46:16;2.30;;;1.30;;
21677;SDS011;11000;50.360;7.582;2023-04-15T10:48:45;1.73;;;1.07;;
21677;SDS011;11000;50.360;7.582;2023-04-15T10:51:07;3.80;;;1.10;;
21677;SDS011;11000;50.360;7.582;2023-04-15T10:53:28;1.77;;;0.83;;
21677;SDS011;11000;50.360;7.582;2023-04-15T10:55:49;1.67;;;1.00;;
21677;SDS011;11000;50.360;7.582;2023-04-15T10:58:10;1.60;;;0.93;;
21677;SDS011;11000;50.360;7.582;2023-04-15T11:00:31;1.33;;;0.50;;
21677;SDS011;11000;50.360;7.582;2023-04-15T11:02:58;1.77;;;1.00;;
21677;SDS011;11000;50.360;7.582;2023-04-15T11:08:11;0.70;;;0.60;;
21677;SDS011;11000;50.360;7.582;2023-04-15T11:12:56;1.07;;;0.60;;
21677;SDS011;11000;50.360;7.582;2023-04-15T11:17:57;1.40;;;0.30;;
21677;SDS011;11000;50.360;7.582;2023-04-15T11:20:18;1.03;;;0.40;;
21677;SDS011;11000;50.360;7.582;2023-04-15T11:22:45;1.43;;;0.40;;
21677;SDS011;11000;50.360;7.582;2023-04-15T11:25:10;3.13;;;0.50;;
21677;SDS011;11000;50.360;7.582;2023-04-15T11:27:40;0.33;;;0.30;;
21677;SDS011;11000;50.360;7.582;2023-04-15T11:30:01;0.83;;;0.60;;
21677;SDS011;11000;50.360;7.582;2023-04-15T11:32:34;0.60;;;0.60;;
21677;SDS011;11000;50.360;7.582;2023-04-15T11:34:54;1.43;;;0.40;;
21677;SDS011;11000;50.360;7.582;2023-04-15T11:37:15;0.73;;;0.40;;
21677;SDS011;11000;50.360;7.582;2023-04-15T11:39:36;0.50;;;0.50;;
21677;SDS011;11000;50.360;7.582;2023-04-15T11:41:56;0.93;;;0.40;;
21677;SDS011;11000;50.360;7.582;2023-04-15T11:44:17;0.70;;;0.70;;
21677;SDS011;11000;50.360;7.582;2023-04-15T11:46:37;0.30;;;0.30;;
21677;SDS011;11000;50.360;7.582;2023-04-15T11:48:58;1.13;;;0.63;;
21677;SDS011;11000;50.360;7.582;2023-04-15T11:51:19;0.40;;;0.40;;
21677;SDS011;11000;50.360;7.582;2023-04-15T11:56:03;1.00;;;0.40;;
21677;SDS011;11000;50.360;7.582;2023-04-15T11:58:25;1.80;;;0.60;;
21677;SDS011;11000;50.360;7.582;2023-04-15T12:00:47;0.73;;;0.60;;
21677;SDS011;11000;50.360;7.582;2023-04-15T12:03:22;2.37;;;0.90;;
21677;SDS011;11000;50.360;7.582;2023-04-15T12:08:33;1.03;;;0.90;;
21677;SDS011;11000;50.360;7.582;2023-04-15T12:11:41;0.80;;;0.80;;
21677;SDS011;11000;50.360;7.582;2023-04-15T12:14:04;0.83;;;0.80;;
21677;SDS011;11000;50.360;7.582;2023-04-15T12:16:35;1.73;;;0.80;;
21677;SDS011;11000;50.360;7.582;2023-04-15T12:19:03;1.83;;;1.47;;
21677;SDS011;11000;50.360;7.582;2023-04-15T12:21:27;0.83;;;0.83;;
21677;SDS011;11000;50.360;7.582;2023-04-15T12:23:54;0.80;;;0.80;;
21677;SDS011;11000;50.360;7.582;2023-04-15T12:26:16;1.20;;;1.10;;
21677;SDS011;11000;50.360;7.582;2023-04-15T12:28:39;1.37;;;1.13;;
21677;SDS011;11000;50.360;7.582;2023-04-15T12:31:06;2.13;;;1.10;;
21677;SDS011;11000;50.360;7.582;2023-04-15T12:33:32;2.33;;;1.20;;
21677;SDS011;11000;50.360;7.582;2023-04-15T12:35:52;1.00;;;1.00;;
21677;SDS011;11000;50.360;7.582;2023-04-15T12:38:13;1.97;;;1.20;;
21677;SDS011;11000;50.360;7.582;2023-04-15T12:40:34;1.40;;;1.30;;
21677;SDS011;11000;50.360;7.582;2023-04-15T12:42:57;1.23;;;1.13;;
21677;SDS011;11000;50.360;7.582;2023-04-15T12:45:18;1.20;;;1.07;;
21677;SDS011;11000;50.360;7.582;2023-04-15T12:47:40;1.20;;;1.10;;
21677;SDS011;11000;50.360;7.582;2023-04-15T12:50:01;1.60;;;1.50;;
21677;SDS011;11000;50.360;7.582;2023-04-15T12:52:23;2.27;;;1.60;;
21677;SDS011;11000;50.360;7.582;2023-04-15T12:54:44;2.07;;;1.80;;
21677;SDS011;11000;50.360;7.582;2023-04-15T12:57:05;1.67;;;1.57;;
21677;SDS011;11000;50.360;7.582;2023-04-15T12:59:26;2.30;;;1.53;;
21677;SDS011;11000;50.360;7.582;2023-04-15T13:01:50;1.47;;;1.37;;
21677;SDS011;11000;50.360;7.582;2023-04-15T13:04:12;3.23;;;1.60;;
21677;SDS011;11000;50.360;7.582;2023-04-15T13:06:33;2.00;;;1.90;;
21677;SDS011;11000;50.360;7.582;2023-04-15T13:08:54;1.90;;;1.80;;
21677;SDS011;11000;50.360;7.582;2023-04-15T13:11:15;1.90;;;1.77;;
21677;SDS011;11000;50.360;7.582;2023-04-15T13:13:36;2.87;;;1.67;;
21677;SDS011;11000;50.360;7.582;2023-04-15T13:15:57;1.87;;;1.37;;
21677;SDS011;11000;50.360;7.582;2023-04-15T13:18:18;3.00;;;1.60;;
21677;SDS011;11000;50.360;7.582;2023-04-15T13:20:39;1.87;;;1.77;;
21677;SDS011;11000;50.360;7.582;2023-04-15T13:23:00;2.50;;;2.30;;
21677;SDS011;11000;50.360;7.582;2023-04-15T13:25:21;3.10;;;2.80;;
21677;SDS011;11000;50.360;7.582;2023-04-15T13:27:41;3.43;;;2.80;;
21677;SDS011;11000;50.360;7.582;2023-04-15T13:30:03;3.37;;;3.07;;
21677;SDS011;11000;50.360;7.582;2023-04-15T13:32:24;3.37;;;3.03;;
21677;SDS011;11000;50.360;7.582;2023-04-15T13:34:45;4.10;;;3.63;;
21677;SDS011;11000;50.360;7.582;2023-04-15T13:37:06;4.47;;;4.00;;
21677;SDS011;11000;50.360;7.582;2023-04-15T13:39:28;4.00;;;3.70;;
21677;SDS011;11000;50.360;7.582;2023-04-15T13:41:49;3.93;;;3.57;;
21677;SDS011;11000;50.360;7.582;2023-04-15T13:44:10;3.83;;;3.50;;
21677;SDS011;11000;50.360;7.582;2023-04-15T13:46:32;4.07;;;3.77;;
21677;SDS011;11000;50.360;7.582;2023-04-15T13:48:53;4.10;;;3.80;;
21677;SDS011;11000;50.360;7.582;2023-04-15T13:51:14;4.27;;;3.87;;
21677;SDS011;11000;50.360;7.582;2023-04-15T13:53:35;4.17;;;3.87;;
21677;SDS011;11000;50.360;7.582;2023-04-15T13:55:56;4.27;;;3.87;;
21677;SDS011;11000;50.360;7.582;2023-04-15T13:58:16;5.83;;;2.93;;
21677;SDS011;11000;50.360;7.582;2023-04-15T14:00:37;3.43;;;3.13;;
21677;SDS011;11000;50.360;7.582;2023-04-15T14:02:58;3.80;;;3.50;;
21677;SDS011;11000;50.360;7.582;2023-04-15T14:05:19;4.07;;;3.53;;
21677;SDS011;11000;50.360;7.582;2023-04-15T14:07:41;4.03;;;3.60;;
21677;SDS011;11000;50.360;7.582;2023-04-15T14:10:04;3.93;;;3.63;;
21677;SDS011;11000;50.360;7.582;2023-04-15T14:12:25;4.20;;;3.80;;
21677;SDS011;11000;50.360;7.582;2023-04-15T14:14:46;3.93;;;3.63;;
21677;SDS011;11000;50.360;7.582;2023-04-15T14:17:07;4.50;;;4.10;;
21677;SDS011;11000;50.360;7.582;2023-04-15T14:19:28;3.77;;;3.47;;
21677;SDS011;11000;50.360;7.582;2023-04-15T14:21:50;4.03;;;3.73;;
21677;SDS011;11000;50.360;7.582;2023-04-15T14:24:11;4.53;;;4.00;;
21677;SDS011;11000;50.360;7.582;2023-04-15T14:26:33;4.33;;;3.33;;
21677;SDS011;11000;50.360;7.582;2023-04-15T14:28:54;3.50;;;3.10;;
21677;SDS011;11000;50.360;7.582;2023-04-15T14:31:14;4.40;;;3.57;;